createdAt,value
2017-08-14T00:00:44.317Z,99494.42
2017-08-14T00:03:11.904Z,99500.40
2017-08-14T00:05:39.463Z,99495.95
2017-08-14T00:08:07.030Z,99490.00
2017-08-14T00:10:34.556Z,99490.27
2017-08-14T00:13:02.081Z,99490.14
2017-08-14T00:15:29.628Z,99482.01
2017-08-14T00:17:57.143Z,99480.63
2017-08-14T00:20:24.702Z,99484.05
2017-08-14T00:22:52.220Z,99476.73
2017-08-14T00:25:19.773Z,99477.87
2017-08-14T00:27:47.294Z,99475.31
2017-08-14T00:30:14.865Z,99473.42
2017-08-14T00:32:42.386Z,99461.94
2017-08-14T00:35:09.904Z,99467.44
2017-08-14T00:37:37.453Z,99473.42
2017-08-14T00:40:04.974Z,99479.78
2017-08-14T00:42:32.601Z,99477.59
2017-08-14T00:45:00.117Z,99471.94
2017-08-14T00:47:27.646Z,99475.45
2017-08-14T00:49:55.200Z,99474.25
2017-08-14T00:52:22.713Z,99468.47
2017-08-14T00:54:50.267Z,99461.48
2017-08-14T00:57:17.849Z,99463.09
2017-08-14T00:59:45.396Z,99462.15
2017-08-14T01:02:12.910Z,99466.75
2017-08-14T01:04:40.421Z,99462.83
2017-08-14T01:07:07.971Z,99460.41
2017-08-14T01:09:35.484Z,99454.48
2017-08-14T01:12:03.060Z,99456.10
2017-08-14T01:14:30.575Z,99448.00
2017-08-14T01:16:58.102Z,99445.23
2017-08-14T01:19:25.649Z,99446.99
2017-08-14T01:21:53.180Z,99444.69
2017-08-14T01:24:20.734Z,99445.63
2017-08-14T01:26:48.249Z,99447.52
2017-08-14T01:29:15.826Z,99451.70
2017-08-14T01:31:43.378Z,99447.36
2017-08-14T01:34:10.905Z,99444.78
2017-08-14T01:36:38.504Z,99449.92
2017-08-14T01:39:06.049Z,99448.03
2017-08-14T01:41:33.569Z,99447.63
2017-08-14T01:44:01.864Z,99446.03
2017-08-14T01:46:29.474Z,99445.09
2017-08-14T01:48:57.028Z,99436.80
2017-08-14T01:51:24.553Z,99431.14
2017-08-14T01:53:52.120Z,99432.18
2017-08-14T01:56:19.654Z,99428.44
2017-08-14T01:58:47.179Z,99432.38
2017-08-14T02:01:14.832Z,99435.39
2017-08-14T02:03:42.379Z,99443.31
2017-08-14T02:06:10.041Z,99443.13
2017-08-14T02:08:37.568Z,99439.73
2017-08-14T02:11:05.090Z,99440.31
2017-08-14T02:13:32.677Z,99435.02
2017-08-14T02:16:00.193Z,99432.23
2017-08-14T02:18:27.747Z,99426.53
2017-08-14T02:20:55.274Z,99428.16
2017-08-14T02:23:22.820Z,99429.52
2017-08-14T02:25:50.388Z,99424.19
2017-08-14T02:28:17.905Z,99421.78
2017-08-14T02:30:45.536Z,99411.69
2017-08-14T02:33:13.095Z,99409.61
2017-08-14T02:35:40.615Z,99419.95
2017-08-14T02:38:08.163Z,99415.20
2017-08-14T02:40:35.686Z,99409.22
2017-08-14T02:43:03.242Z,99412.41
2017-08-14T02:45:30.765Z,99410.39
2017-08-14T02:47:58.285Z,99408.46
2017-08-14T02:50:25.843Z,99409.15
2017-08-14T02:52:53.364Z,99413.73
2017-08-14T02:55:20.928Z,99404.65
2017-08-14T02:57:48.472Z,99403.45
2017-08-14T03:00:15.989Z,99399.91
2017-08-14T03:02:43.569Z,99405.17
2017-08-14T03:05:11.167Z,99402.06
2017-08-14T03:07:38.726Z,99407.86
2017-08-14T03:10:06.273Z,99409.75
2017-08-14T03:12:33.811Z,99413.53
2017-08-14T03:15:01.402Z,99409.37
2017-08-14T03:17:28.933Z,99411.09
2017-08-14T03:19:56.463Z,99413.79
2017-08-14T03:22:24.022Z,99404.45
2017-08-14T03:24:51.533Z,99410.57
2017-08-14T03:27:19.104Z,99403.02
2017-08-14T03:29:46.666Z,99406.69
2017-08-14T03:32:14.206Z,99408.69
2017-08-14T03:34:41.758Z,99405.58
2017-08-14T03:37:09.288Z,99410.72
2017-08-14T03:39:36.869Z,99407.61
2017-08-14T03:42:04.682Z,99402.59
2017-08-14T03:44:32.202Z,99406.39
2017-08-14T03:46:59.775Z,99404.38
2017-08-14T03:49:27.313Z,99400.87
2017-08-14T03:51:54.881Z,99402.38
2017-08-14T03:54:22.396Z,99396.55
2017-08-14T03:56:49.912Z,99396.96
2017-08-14T03:59:17.472Z,99402.50
2017-08-14T04:01:45.081Z,99406.02
2017-08-14T04:04:12.725Z,99401.13
2017-08-14T04:06:40.247Z,99404.54
2017-08-14T04:09:07.771Z,99396.30
2017-08-14T04:11:35.324Z,99391.84
2017-08-14T04:14:02.849Z,99399.31
2017-08-14T04:16:30.421Z,99397.03
2017-08-14T04:18:57.945Z,99386.78
2017-08-14T04:21:25.465Z,99395.39
2017-08-14T04:23:53.020Z,99396.48
2017-08-14T04:26:20.637Z,99396.47
2017-08-14T04:28:48.220Z,99396.06
2017-08-14T04:31:15.745Z,99382.06
2017-08-14T04:33:43.267Z,99403.25
2017-08-14T04:36:10.823Z,99398.17
2017-08-14T04:38:38.346Z,99398.28
2017-08-14T04:41:05.917Z,99400.88
2017-08-14T04:43:33.441Z,99407.32
2017-08-14T04:46:00.953Z,99406.39
2017-08-14T04:48:28.506Z,99403.95
2017-08-14T04:50:56.132Z,99418.54
2017-08-14T04:53:23.706Z,99415.56
2017-08-14T04:55:51.230Z,99419.91
2017-08-14T04:58:18.761Z,99422.70
2017-08-14T05:00:46.377Z,99422.54
2017-08-14T05:03:13.898Z,99418.59
2017-08-14T05:05:41.489Z,99427.81
2017-08-14T05:08:09.005Z,99413.46
2017-08-14T05:10:36.522Z,99418.61
2017-08-14T05:13:04.077Z,99421.20
2017-08-14T05:15:31.592Z,99420.78
2017-08-14T05:17:59.165Z,99423.91
2017-08-14T05:20:26.748Z,99412.30
2017-08-14T05:22:54.265Z,99416.35
2017-08-14T05:25:21.814Z,99417.83
2017-08-14T05:27:49.334Z,99421.59
2017-08-14T05:30:16.903Z,99420.66
2017-08-14T05:32:44.417Z,99424.85
2017-08-14T05:35:11.928Z,99423.50
2017-08-14T05:37:39.512Z,99421.87
2017-08-14T05:40:07.033Z,99420.11
2017-08-14T05:42:34.675Z,99424.97
2017-08-14T05:45:02.203Z,99420.77
2017-08-14T05:47:29.722Z,99412.67
2017-08-14T05:49:57.270Z,99418.89
2017-08-14T05:52:24.789Z,99423.34
2017-08-14T05:54:52.347Z,99421.59
2017-08-14T05:57:19.862Z,99424.30
2017-08-14T05:59:47.376Z,99416.72
2017-08-14T06:02:14.921Z,99416.72
2017-08-14T06:04:42.440Z,99414.97
2017-08-14T06:07:09.995Z,99413.73
2017-08-14T06:09:37.516Z,99419.42
2017-08-14T06:12:05.042Z,99420.08
2017-08-14T06:14:32.608Z,99418.89
2017-08-14T06:17:00.132Z,99429.55
2017-08-14T06:19:27.681Z,99429.39
2017-08-14T06:21:55.197Z,99434.69
2017-08-14T06:24:22.709Z,99434.69
2017-08-14T06:26:50.249Z,99426.28
2017-08-14T06:29:17.769Z,99423.87
2017-08-14T06:31:45.333Z,99431.82
2017-08-14T06:34:12.849Z,99428.98
2017-08-14T06:36:40.383Z,99432.09
2017-08-14T06:39:07.944Z,99431.45
2017-08-14T06:41:35.461Z,99423.31
2017-08-14T06:44:03.008Z,99428.45
2017-08-14T06:46:30.522Z,99423.42
2017-08-14T06:48:58.041Z,99417.07
2017-08-14T06:51:25.600Z,99429.50
2017-08-14T06:53:53.117Z,99419.38
2017-08-14T06:56:20.670Z,99423.83
2017-08-14T06:58:48.190Z,99416.66
2017-08-14T07:01:15.717Z,99423.30
2017-08-14T07:03:43.264Z,99421.13
2017-08-14T07:06:10.792Z,99419.08
2017-08-14T07:08:38.349Z,99422.98
2017-08-14T07:11:05.876Z,99420.14
2017-08-14T07:13:33.415Z,99420.95
2017-08-14T07:16:00.960Z,99417.87
2017-08-14T07:18:28.477Z,99414.46
2017-08-14T07:20:56.062Z,99419.09
2017-08-14T07:23:23.581Z,99420.16
2017-08-14T07:25:51.099Z,99422.44
2017-08-14T07:28:18.650Z,99413.38
2017-08-14T07:30:46.163Z,99416.36
2017-08-14T07:33:13.733Z,99416.91
2017-08-14T07:35:41.242Z,99421.45
2017-08-14T07:38:08.824Z,99407.83
2017-08-14T07:40:36.483Z,99416.32
2017-08-14T07:43:04.001Z,99414.17
2017-08-14T07:45:31.560Z,99411.99
2017-08-14T07:47:59.073Z,99410.23
2017-08-14T07:50:26.598Z,99408.25
2017-08-14T07:52:54.161Z,99408.23
2017-08-14T07:55:21.674Z,99407.13
2017-08-14T07:57:49.189Z,99413.23
2017-08-14T08:00:16.732Z,99400.36
2017-08-14T08:02:44.258Z,99406.75
2017-08-14T08:05:11.817Z,99409.84
2017-08-14T08:07:39.328Z,99410.23
2017-08-14T08:10:06.906Z,99409.16
2017-08-14T08:12:34.456Z,99408.48
2017-08-14T08:15:01.978Z,99408.86
2017-08-14T08:17:29.534Z,99406.72
2017-08-14T08:19:57.052Z,99407.80
2017-08-14T08:22:24.576Z,99410.22
2017-08-14T08:24:52.199Z,99404.13
2017-08-14T08:27:19.719Z,99409.54
2017-08-14T08:29:47.291Z,99409.00
2017-08-14T08:32:14.813Z,99406.97
2017-08-14T08:34:42.317Z,99411.70
2017-08-14T08:37:09.947Z,99407.22
2017-08-14T08:39:37.464Z,99413.03
2017-08-14T08:42:05.044Z,99410.59
2017-08-14T08:44:32.560Z,99406.30
2017-08-14T08:47:00.074Z,99404.24
2017-08-14T08:49:27.630Z,99407.35
2017-08-14T08:51:55.143Z,99407.22
2017-08-14T08:54:22.765Z,99405.73
2017-08-14T08:56:50.281Z,99402.62
2017-08-14T08:59:17.798Z,99403.98
2017-08-14T09:01:45.341Z,99402.62
2017-08-14T09:04:12.862Z,99398.44
2017-08-14T09:06:40.413Z,99395.97
2017-08-14T09:09:07.940Z,99396.78
2017-08-14T09:11:35.486Z,99396.66
2017-08-14T09:14:03.034Z,99392.45
2017-08-14T09:16:30.554Z,99401.55
2017-08-14T09:18:58.111Z,99395.17
2017-08-14T09:21:25.715Z,99391.11
2017-08-14T09:23:53.278Z,99389.05
2017-08-14T09:26:20.809Z,99382.34
2017-08-14T09:28:48.329Z,99385.95
2017-08-14T09:31:15.921Z,99391.77
2017-08-14T09:33:43.438Z,99391.50
2017-08-14T09:36:11.005Z,99390.14
2017-08-14T09:38:38.534Z,99389.33
2017-08-14T09:41:06.047Z,99389.20
2017-08-14T09:43:33.589Z,99389.88
2017-08-14T09:46:01.120Z,99387.98
2017-08-14T09:48:28.689Z,99387.98
2017-08-14T09:50:56.224Z,99379.31
2017-08-14T09:53:23.737Z,99388.23
2017-08-14T09:55:51.286Z,99387.69
2017-08-14T09:58:18.807Z,99388.09
2017-08-14T10:00:46.439Z,99389.45
2017-08-14T10:03:13.962Z,99382.14
2017-08-14T10:05:41.533Z,99385.66
2017-08-14T10:08:09.061Z,99387.42
2017-08-14T10:10:36.578Z,99380.66
2017-08-14T10:13:04.124Z,99383.47
2017-08-14T10:15:31.643Z,99379.14
2017-08-14T10:17:59.195Z,99381.84
2017-08-14T10:20:26.722Z,99373.36
2017-08-14T10:22:54.302Z,99374.30
2017-08-14T10:25:21.822Z,99368.05
2017-08-14T10:27:49.339Z,99367.78
2017-08-14T10:30:16.979Z,99370.05
2017-08-14T10:32:44.492Z,99369.67
2017-08-14T10:35:12.037Z,99364.97
2017-08-14T10:37:39.557Z,99368.16
2017-08-14T10:40:07.126Z,99364.38
2017-08-14T10:42:34.671Z,99359.53
2017-08-14T10:45:02.238Z,99366.95
2017-08-14T10:47:29.792Z,99354.94
2017-08-14T10:49:57.306Z,99352.31
2017-08-14T10:52:24.853Z,99359.63
2017-08-14T10:54:52.369Z,99352.98
2017-08-14T10:57:19.918Z,99356.34
2017-08-14T10:59:47.435Z,99359.22
2017-08-14T11:02:14.954Z,99351.50
2017-08-14T11:04:42.507Z,99347.14
2017-08-14T11:07:10.070Z,99352.56
2017-08-14T11:09:37.626Z,99344.33
2017-08-14T11:12:05.142Z,99349.17
2017-08-14T11:14:32.727Z,99342.81
2017-08-14T11:17:00.247Z,99339.41
2017-08-14T11:19:27.766Z,99340.77
2017-08-14T11:21:55.317Z,99342.22
2017-08-14T11:24:22.837Z,99334.27
2017-08-14T11:26:50.403Z,99331.97
2017-08-14T11:29:17.926Z,99337.22
2017-08-14T11:31:45.441Z,99333.43
2017-08-14T11:34:13.001Z,99326.12
2017-08-14T11:36:40.577Z,99322.61
2017-08-14T11:39:08.131Z,99319.88
2017-08-14T11:41:35.651Z,99321.09
2017-08-14T11:44:03.207Z,99319.33
2017-08-14T11:46:30.720Z,99316.19
2017-08-14T11:48:58.237Z,99316.46
2017-08-14T11:51:25.786Z,99318.46
2017-08-14T11:53:53.392Z,99316.05
2017-08-14T11:56:21.040Z,99311.83
2017-08-14T11:58:48.563Z,99310.07
2017-08-14T12:01:16.085Z,99315.19
2017-08-14T12:03:43.644Z,99312.34
2017-08-14T12:06:11.164Z,99316.00
2017-08-14T12:08:38.750Z,99310.31
2017-08-14T12:11:06.272Z,99307.98
2017-08-14T12:13:33.870Z,99300.16
2017-08-14T12:16:01.418Z,99296.20
2017-08-14T12:18:28.935Z,99294.72
2017-08-14T12:20:56.485Z,99295.40
2017-08-14T12:23:24.014Z,99289.17
2017-08-14T12:25:51.587Z,99295.23
2017-08-14T12:28:19.125Z,99287.27
2017-08-14T12:30:46.686Z,99290.09
2017-08-14T12:33:14.230Z,99281.16
2017-08-14T12:35:41.770Z,99286.70
2017-08-14T12:38:09.322Z,99277.64
2017-08-14T12:40:36.832Z,99271.65
2017-08-14T12:43:04.398Z,99272.05
2017-08-14T12:45:31.941Z,99273.41
2017-08-14T12:47:59.454Z,99268.27
2017-08-14T12:50:27.011Z,99262.31
2017-08-14T12:52:54.540Z,99259.84
2017-08-14T12:55:22.093Z,99265.12
2017-08-14T12:57:49.617Z,99263.77
2017-08-14T13:00:17.178Z,99264.17
2017-08-14T13:02:44.702Z,99258.45
2017-08-14T13:05:12.236Z,99252.50
2017-08-14T13:07:39.785Z,99257.52
2017-08-14T13:10:07.296Z,99246.68
2017-08-14T13:12:34.854Z,99245.59
2017-08-14T13:15:02.378Z,99245.87
2017-08-14T13:17:29.940Z,99237.34
2017-08-14T13:19:57.480Z,99238.25
2017-08-14T13:22:25.002Z,99236.22
2017-08-14T13:24:52.560Z,99232.84
2017-08-14T13:27:20.074Z,99230.27
2017-08-14T13:29:47.621Z,99230.78
2017-08-14T13:32:15.128Z,99224.41
2017-08-14T13:34:42.908Z,99226.98
2017-08-14T13:37:10.433Z,99223.33
2017-08-14T13:39:37.945Z,99221.03
2017-08-14T13:42:05.501Z,99224.65
2017-08-14T13:44:33.022Z,99220.34
2017-08-14T13:47:00.573Z,99211.66
2017-08-14T13:49:28.087Z,99211.52
2017-08-14T13:51:55.646Z,99209.22
2017-08-14T13:54:23.164Z,99208.13
2017-08-14T13:56:50.682Z,99206.78
2017-08-14T13:59:18.228Z,99207.05
2017-08-14T14:01:45.788Z,99201.59
2017-08-14T14:04:13.343Z,99207.83
2017-08-14T14:06:40.870Z,99198.75
2017-08-14T14:09:08.432Z,99198.62
2017-08-14T14:11:35.965Z,99197.50
2017-08-14T14:14:03.486Z,99195.20
2017-08-14T14:16:31.051Z,99194.79
2017-08-14T14:18:58.573Z,99187.48
2017-08-14T14:21:26.113Z,99188.70
2017-08-14T14:23:53.673Z,99180.98
2017-08-14T14:26:21.524Z,99185.69
2017-08-14T14:28:49.041Z,99179.77
2017-08-14T14:31:16.554Z,99177.97
2017-08-14T14:33:44.111Z,99180.40
2017-08-14T14:36:11.622Z,99178.87
2017-08-14T14:38:39.174Z,99176.17
2017-08-14T14:41:06.689Z,99169.02
2017-08-14T14:43:34.242Z,99172.38
2017-08-14T14:46:01.758Z,99173.05
2017-08-14T14:48:29.278Z,99170.48
2017-08-14T14:50:56.830Z,99167.63
2017-08-14T14:53:24.352Z,99165.56
2017-08-14T14:55:51.908Z,99158.80
2017-08-14T14:58:19.436Z,99156.77
2017-08-14T15:00:46.989Z,99156.90
2017-08-14T15:03:14.513Z,99148.64
2017-08-14T15:05:42.034Z,99146.73
2017-08-14T15:08:09.581Z,99146.57
2017-08-14T15:10:37.102Z,99144.67
2017-08-14T15:13:04.656Z,99142.64
2017-08-14T15:15:32.175Z,99143.05
2017-08-14T15:17:59.696Z,99144.62
2017-08-14T15:20:27.249Z,99141.11
2017-08-14T15:22:54.765Z,99143.58
2017-08-14T15:25:22.312Z,99147.09
2017-08-14T15:27:49.847Z,99146.14
2017-08-14T15:30:17.399Z,99143.58
2017-08-14T15:32:44.912Z,99139.78
2017-08-14T15:35:12.431Z,99146.78
2017-08-14T15:37:39.973Z,99147.73
2017-08-14T15:40:07.504Z,99139.06
2017-08-14T15:42:35.045Z,99134.56
2017-08-14T15:45:02.566Z,99132.34
2017-08-14T15:47:30.400Z,99138.67
2017-08-14T15:49:57.912Z,99133.66
2017-08-14T15:52:25.438Z,99127.47
2017-08-14T15:54:52.981Z,99127.69
2017-08-14T15:57:20.500Z,99129.59
2017-08-14T15:59:48.062Z,99135.81
2017-08-14T16:02:15.585Z,99126.57
2017-08-14T16:04:43.133Z,99129.83
2017-08-14T16:07:10.653Z,99129.45
2017-08-14T16:09:38.172Z,99131.99
2017-08-14T16:12:05.720Z,99133.20
2017-08-14T16:14:33.236Z,99128.19
2017-08-14T16:17:00.780Z,99128.19
2017-08-14T16:19:40.215Z,99125.34
2017-08-14T16:22:08.020Z,99115.05
2017-08-14T16:24:35.534Z,99119.76
2017-08-14T16:27:03.058Z,99111.48
2017-08-14T16:29:30.611Z,99110.14
2017-08-14T16:31:58.121Z,99112.30
2017-08-14T16:34:25.683Z,99098.62
2017-08-14T16:36:53.203Z,99107.38
2017-08-14T16:39:20.752Z,99108.33
2017-08-14T16:41:48.268Z,99104.94
2017-08-14T16:44:15.790Z,99093.97
2017-08-14T16:46:43.337Z,99094.51
2017-08-14T16:49:10.848Z,99095.70
2017-08-14T16:51:38.412Z,99094.73
2017-08-14T16:54:05.925Z,99096.68
2017-08-14T16:56:33.761Z,99094.73
2017-08-14T16:59:01.280Z,99096.17
2017-08-14T17:01:28.893Z,99097.88
2017-08-14T17:03:56.457Z,99098.07
2017-08-14T17:06:23.981Z,99104.66
2017-08-14T17:08:51.537Z,99097.70
2017-08-14T17:11:19.058Z,99097.20
2017-08-14T17:13:46.621Z,99092.20
2017-08-14T17:16:14.155Z,99092.61
2017-08-14T17:18:41.998Z,99082.58
2017-08-14T17:21:09.547Z,99085.66
2017-08-14T17:23:37.070Z,99081.77
2017-08-14T17:26:04.617Z,99087.88
2017-08-14T17:28:32.146Z,99083.58
2017-08-14T17:30:59.689Z,99084.27
2017-08-14T17:33:27.200Z,99083.05
2017-08-14T17:35:54.765Z,99084.00
2017-08-14T17:38:22.281Z,99075.46
2017-08-14T17:40:49.800Z,99076.03
2017-08-14T17:43:17.349Z,99087.28
2017-08-14T17:45:44.888Z,99083.77
2017-08-14T17:48:12.444Z,99084.86
2017-08-14T17:50:39.970Z,99078.70
2017-08-14T17:53:07.777Z,99081.23
2017-08-14T17:55:35.296Z,99078.93
2017-08-14T17:58:02.807Z,99072.56
2017-08-14T18:00:30.367Z,99080.95
2017-08-14T18:02:57.888Z,99082.95
2017-08-14T18:05:25.436Z,99077.53
2017-08-14T18:07:52.963Z,99087.19
2017-08-14T18:10:20.480Z,99085.28
2017-08-14T18:12:48.042Z,99087.59
2017-08-14T18:15:15.562Z,99084.35
2017-08-14T18:17:43.121Z,99086.66
2017-08-14T18:20:10.636Z,99081.00
2017-08-14T18:22:38.159Z,99079.79
2017-08-14T18:25:05.706Z,99083.95
2017-08-14T18:27:33.222Z,99077.98
2017-08-14T18:30:00.774Z,99080.86
2017-08-14T18:32:28.305Z,99082.36
2017-08-14T18:34:55.872Z,99090.63
2017-08-14T18:37:23.386Z,99084.41
2017-08-14T18:39:50.907Z,99085.21
2017-08-14T18:42:18.453Z,99089.42
2017-08-14T18:44:45.971Z,99091.18
2017-08-14T18:47:13.518Z,99088.88
2017-08-14T18:49:41.038Z,99097.14
2017-08-14T18:52:08.597Z,99097.95
2017-08-14T18:54:36.133Z,99098.12
2017-08-14T18:57:03.656Z,99102.19
2017-08-14T18:59:31.223Z,99102.02
2017-08-14T19:01:58.742Z,99108.66
2017-08-14T19:04:26.289Z,99107.98
2017-08-14T19:06:53.809Z,99112.05
2017-08-14T19:09:22.602Z,99111.02
2017-08-14T19:11:48.980Z,99110.56
2017-08-14T19:14:16.490Z,99112.45
2017-08-14T19:16:44.037Z,99112.63
2017-08-14T19:19:11.554Z,99103.83
2017-08-14T19:21:39.106Z,99105.33
2017-08-14T19:24:06.622Z,99108.98
2017-08-14T19:26:34.186Z,99112.27
2017-08-14T19:29:01.702Z,99114.00
2017-08-14T19:31:29.218Z,99114.67
2017-08-14T19:33:56.773Z,99118.47
2017-08-14T19:36:24.291Z,99111.70
2017-08-14T19:38:51.840Z,99119.69
2017-08-14T19:41:19.354Z,99123.07
2017-08-14T19:43:46.914Z,99114.67
2017-08-14T19:46:14.433Z,99119.14
2017-08-14T19:48:41.945Z,99120.36
2017-08-14T19:51:09.498Z,99124.42
2017-08-14T19:53:37.014Z,99124.97
2017-08-14T19:56:04.565Z,99124.97
2017-08-14T19:58:32.089Z,99122.13
2017-08-14T20:00:59.641Z,99125.37
2017-08-14T20:03:27.164Z,99128.31
2017-08-14T20:05:54.687Z,99123.87
2017-08-14T20:08:22.313Z,99122.89
2017-08-14T20:10:49.836Z,99123.30
2017-08-14T20:13:17.398Z,99128.44
2017-08-14T20:15:44.913Z,99122.76
2017-08-14T20:18:12.473Z,99123.16
2017-08-14T20:20:39.982Z,99123.92
2017-08-14T20:23:07.497Z,99130.44
2017-08-14T20:25:35.046Z,99128.67
2017-08-14T20:28:02.573Z,99131.96
2017-08-14T20:30:30.130Z,99137.12
2017-08-14T20:32:57.657Z,99134.09
2017-08-14T20:35:25.200Z,99140.45
2017-08-14T20:37:52.814Z,99133.08
2017-08-14T20:40:23.312Z,99136.30
2017-08-14T20:42:51.034Z,99137.65
2017-08-14T20:45:18.900Z,99136.84
2017-08-14T20:47:46.766Z,99136.52
2017-08-14T20:50:14.632Z,99143.27
2017-08-14T20:52:42.501Z,99135.95
2017-08-14T20:55:10.092Z,99142.82
2017-08-14T20:57:38.112Z,99139.16
2017-08-14T21:00:05.645Z,99140.06
2017-08-14T21:02:33.178Z,99145.93
2017-08-14T21:05:00.729Z,99145.00
2017-08-14T21:07:28.373Z,99146.22
2017-08-14T21:09:56.783Z,99150.81
2017-08-14T21:12:24.301Z,99150.03
2017-08-14T21:14:51.816Z,99147.88
2017-08-14T21:17:19.381Z,99154.52
2017-08-14T21:19:46.906Z,99161.48
2017-08-14T21:22:14.685Z,99150.59
2017-08-14T21:24:42.204Z,99152.71
2017-08-14T21:27:09.722Z,99152.27
2017-08-14T21:29:37.282Z,99153.39
2017-08-14T21:32:04.802Z,99157.42
2017-08-14T21:34:32.369Z,99153.48
2017-08-14T21:36:59.899Z,99154.30
2017-08-14T21:39:27.418Z,99153.94
2017-08-14T21:41:54.970Z,99153.53
2017-08-14T21:44:22.499Z,99152.17
2017-08-14T21:46:50.045Z,99151.36
2017-08-14T21:49:17.573Z,99146.67
2017-08-14T21:51:45.123Z,99144.63
2017-08-14T21:54:12.641Z,99147.13
2017-08-14T21:56:40.185Z,99146.52
2017-08-14T21:59:07.704Z,99149.06
2017-08-14T22:01:35.249Z,99147.43
2017-08-14T22:04:02.766Z,99150.28
2017-08-14T22:06:30.321Z,99147.13
2017-08-14T22:08:57.837Z,99156.78
2017-08-14T22:11:25.399Z,99151.91
2017-08-14T22:13:52.920Z,99147.57
2017-08-14T22:16:20.445Z,99160.17
2017-08-14T22:18:48.124Z,99148.34
2017-08-14T22:21:15.639Z,99160.08
2017-08-14T22:23:43.193Z,99158.13
2017-08-14T22:26:10.715Z,99160.66
2017-08-14T22:28:38.233Z,99157.78
2017-08-14T22:31:05.786Z,99156.92
2017-08-14T22:33:33.304Z,99161.39
2017-08-14T22:36:00.854Z,99162.73
2017-08-14T22:38:28.391Z,99160.17
2017-08-14T22:40:56.272Z,99163.55
2017-08-14T22:43:23.782Z,99160.30
2017-08-14T22:45:51.300Z,99164.78
2017-08-14T22:48:18.850Z,99160.72
2017-08-14T22:50:46.371Z,99162.37
2017-08-14T22:53:14.163Z,99161.75
2017-08-14T22:55:41.678Z,99162.52
2017-08-14T22:58:09.197Z,99162.64
2017-08-14T23:00:36.839Z,99160.66
2017-08-14T23:03:04.499Z,99158.25
2017-08-14T23:05:32.046Z,99156.77
2017-08-14T23:07:59.576Z,99159.34
2017-08-14T23:10:27.136Z,99157.03
2017-08-14T23:12:54.739Z,99162.23
2017-08-14T23:15:22.255Z,99160.23
2017-08-14T23:17:49.813Z,99164.70
2017-08-14T23:20:17.333Z,99155.77
2017-08-14T23:22:44.887Z,99158.80
2017-08-14T23:25:12.410Z,99156.30
2017-08-14T23:27:40.197Z,99155.64
2017-08-14T23:30:07.710Z,99149.18
2017-08-14T23:32:35.256Z,99148.72
2017-08-14T23:35:02.809Z,99151.84
2017-08-14T23:37:30.330Z,99151.05
2017-08-14T23:39:57.875Z,99146.98
2017-08-14T23:42:25.405Z,99150.53
2017-08-14T23:44:52.970Z,99147.50
2017-08-14T23:47:20.486Z,99151.22
2017-08-14T23:49:48.266Z,99145.34
2017-08-14T23:52:15.776Z,99152.55
2017-08-14T23:54:43.290Z,99150.38
2017-08-14T23:57:10.846Z,99143.75
2017-08-14T23:59:38.366Z,99141.77
